createdAt,value
2023-09-27T00:00:00.647Z,101253.40
2023-09-27T00:01:33.396Z,101250.20
2023-09-27T00:03:05.516Z,101246.60
2023-09-27T00:04:37.507Z,101243.00
2023-09-27T00:06:09.764Z,101239.00
2023-09-27T00:07:42.992Z,101246.20
2023-09-27T00:09:15.932Z,101247.20
2023-09-27T00:10:47.727Z,101241.00
2023-09-27T00:12:19.607Z,101244.60
2023-09-27T00:13:51.526Z,101241.20
2023-09-27T00:15:24.311Z,101241.00
2023-09-27T00:16:57.565Z,101245.40
2023-09-27T00:18:29.381Z,101244.60
2023-09-27T00:20:01.283Z,101242.80
2023-09-27T00:21:33.102Z,101242.60
2023-09-27T00:23:06.825Z,101241.20
2023-09-27T00:24:40.252Z,101237.60
2023-09-27T00:26:12.080Z,101238.00
2023-09-27T00:27:44.528Z,101238.60
2023-09-27T00:29:16.336Z,101240.40
2023-09-27T00:30:52.029Z,101243.00
2023-09-27T00:32:23.993Z,101237.20
2023-09-27T00:33:55.895Z,101238.00
2023-09-27T00:35:27.895Z,101242.60
2023-09-27T00:37:00.150Z,101246.40
2023-09-27T00:38:32.684Z,101247.80
2023-09-27T00:40:11.491Z,101250.40
2023-09-27T00:41:43.327Z,101253.60
2023-09-27T00:43:33.373Z,101254.00
2023-09-27T00:45:06.694Z,101254.80
2023-09-27T00:46:41.542Z,101257.60
2023-09-27T00:48:13.503Z,101258.00
2023-09-27T00:49:45.817Z,101256.40
2023-09-27T00:51:17.770Z,101258.20
2023-09-27T00:52:50.684Z,101258.60
2023-09-27T00:54:22.922Z,101264.60
2023-09-27T00:55:56.714Z,101261.60
2023-09-27T00:57:28.689Z,101265.80
2023-09-27T00:59:00.560Z,101267.20
2023-09-27T01:00:34.392Z,101274.60
2023-09-27T01:02:07.607Z,101281.60
2023-09-27T01:03:39.780Z,101281.20
2023-09-27T01:05:12.583Z,101282.80
2023-09-27T01:06:45.427Z,101287.40
2023-09-27T01:08:17.287Z,101288.00
2023-09-27T01:09:49.685Z,101285.40
2023-09-27T01:11:21.638Z,101288.40
2023-09-27T01:12:54.090Z,101294.80
2023-09-27T01:14:26.058Z,101295.00
2023-09-27T01:15:57.831Z,101292.40
2023-09-27T01:17:29.736Z,101293.60
2023-09-27T01:19:03.493Z,101288.00
2023-09-27T01:20:35.469Z,101290.00
2023-09-27T01:22:07.350Z,101291.60
2023-09-27T01:23:42.214Z,101296.40
2023-09-27T01:25:18.592Z,101300.20
2023-09-27T01:26:50.463Z,101296.40
2023-09-27T01:28:22.611Z,101299.80
2023-09-27T01:29:54.407Z,101297.00
2023-09-27T01:31:26.189Z,101298.40
2023-09-27T01:32:58.947Z,101300.20
2023-09-27T01:34:32.774Z,101298.20
2023-09-27T01:36:05.681Z,101302.20
2023-09-27T01:37:37.590Z,101303.80
2023-09-27T01:39:09.699Z,101304.20
2023-09-27T01:40:46.463Z,101304.40
2023-09-27T01:42:18.182Z,101291.80
2023-09-27T01:43:50.047Z,101284.80
2023-09-27T01:45:21.946Z,101283.60
2023-09-27T01:46:56.157Z,101286.80
2023-09-27T01:48:28.126Z,101285.00
2023-09-27T01:49:59.982Z,101288.60
2023-09-27T01:51:32.478Z,101293.00
2023-09-27T01:53:04.820Z,101297.80
2023-09-27T01:54:36.745Z,101304.20
2023-09-27T01:56:08.557Z,101308.00
2023-09-27T01:57:41.653Z,101310.80
2023-09-27T01:59:13.989Z,101314.00
2023-09-27T02:00:46.002Z,101315.60
2023-09-27T02:02:17.836Z,101319.80
2023-09-27T02:03:49.843Z,101318.00
2023-09-27T02:05:21.744Z,101316.40
2023-09-27T02:06:53.703Z,101310.20
2023-09-27T02:08:25.586Z,101306.40
2023-09-27T02:09:57.486Z,101306.20
2023-09-27T02:11:29.325Z,101307.60
2023-09-27T02:13:01.118Z,101305.00
2023-09-27T02:14:32.895Z,101303.40
2023-09-27T02:16:04.970Z,101301.40
2023-09-27T02:17:42.552Z,101301.20
2023-09-27T02:19:14.720Z,101304.80
2023-09-27T02:20:46.867Z,101304.80
2023-09-27T02:22:19.667Z,101306.60
2023-09-27T02:23:51.983Z,101308.60
2023-09-27T02:25:24.325Z,101305.60
2023-09-27T02:26:56.090Z,101306.40
2023-09-27T02:28:30.599Z,101310.00
2023-09-27T02:30:04.692Z,101312.00
2023-09-27T02:31:36.823Z,101312.60
2023-09-27T02:33:08.773Z,101305.20
2023-09-27T02:34:41.178Z,101297.40
2023-09-27T02:36:13.038Z,101301.80
2023-09-27T02:37:45.548Z,101301.40
2023-09-27T02:39:17.354Z,101301.40
2023-09-27T02:40:49.249Z,101303.00
2023-09-27T02:42:21.370Z,101302.20
2023-09-27T02:43:53.331Z,101298.00
2023-09-27T02:45:25.280Z,101293.00
2023-09-27T02:46:57.170Z,101290.40
2023-09-27T02:48:30.294Z,101289.20
2023-09-27T02:50:11.103Z,101281.60
2023-09-27T02:51:43.131Z,101282.40
2023-09-27T02:53:15.200Z,101283.00
2023-09-27T02:54:48.607Z,101277.60
2023-09-27T02:56:20.413Z,101276.00
2023-09-27T02:57:54.339Z,101271.60
2023-09-27T02:59:30.625Z,101268.60
2023-09-27T03:01:02.499Z,101265.00
2023-09-27T03:02:35.232Z,101263.80
2023-09-27T03:04:08.934Z,101251.40
2023-09-27T03:05:42.101Z,101255.00
2023-09-27T03:07:15.278Z,101251.00
2023-09-27T03:08:49.456Z,101258.60
2023-09-27T03:10:22.601Z,101256.00
2023-09-27T03:11:54.696Z,101254.00
2023-09-27T03:13:27.376Z,101250.60
2023-09-27T03:14:59.243Z,101248.00
2023-09-27T03:16:31.335Z,101249.00
2023-09-27T03:18:04.785Z,101244.80
2023-09-27T03:19:36.661Z,101240.20
2023-09-27T03:21:08.419Z,101234.60
2023-09-27T03:22:40.213Z,101245.60
2023-09-27T03:24:12.027Z,101245.00
2023-09-27T03:25:43.870Z,101248.40
2023-09-27T03:27:16.166Z,101245.80
2023-09-27T03:28:48.123Z,101246.20
2023-09-27T03:30:20.224Z,101246.60
2023-09-27T03:31:52.061Z,101244.60
2023-09-27T03:33:23.940Z,101242.80
2023-09-27T03:34:56.275Z,101248.40
2023-09-27T03:36:29.413Z,101253.40
2023-09-27T03:38:01.265Z,101260.20
2023-09-27T03:39:36.887Z,101264.60
2023-09-27T03:41:11.128Z,101263.20
2023-09-27T03:42:45.867Z,101262.20
2023-09-27T03:44:18.059Z,101258.20
2023-09-27T03:45:50.800Z,101253.80
2023-09-27T03:47:22.792Z,101246.00
2023-09-27T03:48:54.950Z,101245.80
2023-09-27T03:50:27.003Z,101249.00
2023-09-27T03:51:58.775Z,101248.20
2023-09-27T03:53:32.883Z,101246.00
2023-09-27T03:55:05.197Z,101245.60
2023-09-27T03:56:37.985Z,101242.00
2023-09-27T03:58:09.827Z,101237.80
2023-09-27T03:59:41.655Z,101238.60
2023-09-27T04:01:13.592Z,101233.60
2023-09-27T04:02:46.337Z,101231.40
2023-09-27T04:04:19.593Z,101233.20
2023-09-27T04:05:52.546Z,101233.60
2023-09-27T04:07:24.408Z,101232.40
2023-09-27T04:08:56.182Z,101234.40
2023-09-27T04:10:30.511Z,101241.80
2023-09-27T04:12:02.371Z,101242.00
2023-09-27T04:13:34.090Z,101247.40
2023-09-27T04:15:10.447Z,101242.40
2023-09-27T04:16:43.245Z,101247.60
2023-09-27T04:18:15.000Z,101254.80
2023-09-27T04:19:46.864Z,101258.20
2023-09-27T04:21:18.716Z,101256.00
2023-09-27T04:22:51.026Z,101259.20
2023-09-27T04:24:24.411Z,101258.20
2023-09-27T04:25:56.599Z,101259.80
2023-09-27T04:27:28.384Z,101258.40
2023-09-27T04:29:01.460Z,101253.00
2023-09-27T04:30:33.509Z,101258.60
2023-09-27T04:32:05.518Z,101255.20
2023-09-27T04:33:37.454Z,101254.40
2023-09-27T04:35:09.935Z,101252.20
2023-09-27T04:36:41.754Z,101254.40
2023-09-27T04:38:13.727Z,101255.80
2023-09-27T04:39:45.486Z,101259.00
2023-09-27T04:41:19.221Z,101264.00
2023-09-27T04:42:51.132Z,101272.20
2023-09-27T04:44:23.021Z,101273.80
2023-09-27T04:45:54.810Z,101275.00
2023-09-27T04:47:26.731Z,101274.40
2023-09-27T04:48:58.630Z,101276.00
2023-09-27T04:50:30.407Z,101278.40
2023-09-27T04:52:02.186Z,101282.40
2023-09-27T04:53:38.474Z,101288.60
2023-09-27T04:55:11.084Z,101284.40
2023-09-27T04:56:42.970Z,101287.00
2023-09-27T04:58:14.864Z,101286.20
2023-09-27T04:59:46.594Z,101277.60
2023-09-27T05:01:18.467Z,101281.20
2023-09-27T05:02:53.340Z,101280.60
2023-09-27T05:04:25.487Z,101277.40
2023-09-27T05:05:57.283Z,101279.60
2023-09-27T05:07:30.720Z,101274.60
2023-09-27T05:09:02.969Z,101271.80
2023-09-27T05:10:34.688Z,101274.60
2023-09-27T05:12:07.132Z,101267.80
2023-09-27T05:13:39.027Z,101265.00
2023-09-27T05:15:11.272Z,101271.20
2023-09-27T05:16:43.057Z,101267.80
2023-09-27T05:18:15.196Z,101265.40
2023-09-27T05:19:46.967Z,101258.00
2023-09-27T05:21:18.824Z,101261.40
2023-09-27T05:22:50.948Z,101262.20
2023-09-27T05:24:22.925Z,101266.20
2023-09-27T05:25:54.832Z,101268.60
2023-09-27T05:27:26.641Z,101269.80
2023-09-27T05:28:58.485Z,101277.80
2023-09-27T05:30:30.339Z,101277.40
2023-09-27T05:32:03.274Z,101280.40
2023-09-27T05:33:35.081Z,101283.80
2023-09-27T05:35:07.480Z,101281.80
2023-09-27T05:36:41.636Z,101283.60
2023-09-27T05:38:13.533Z,101281.20
2023-09-27T05:39:45.558Z,101282.80
2023-09-27T05:41:17.374Z,101281.40
2023-09-27T05:42:49.247Z,101287.40
2023-09-27T05:44:21.335Z,101286.20
2023-09-27T05:45:53.935Z,101283.20
2023-09-27T05:47:25.848Z,101280.80
2023-09-27T05:48:57.843Z,101276.00
2023-09-27T05:50:29.881Z,101280.20
2023-09-27T05:52:03.368Z,101281.40
2023-09-27T05:53:35.335Z,101281.80
2023-09-27T05:55:08.434Z,101283.80
2023-09-27T05:56:40.397Z,101294.20
2023-09-27T05:58:12.344Z,101295.60
2023-09-27T05:59:46.353Z,101298.40
2023-09-27T06:01:22.241Z,101301.00
2023-09-27T06:02:54.277Z,101302.00
2023-09-27T06:04:26.422Z,101305.00
2023-09-27T06:05:59.751Z,101305.40
2023-09-27T06:07:32.591Z,101302.40
2023-09-27T06:09:10.521Z,101297.80
2023-09-27T06:10:42.396Z,101287.40
2023-09-27T06:12:14.187Z,101283.60
2023-09-27T06:13:46.026Z,101282.40
2023-09-27T06:15:18.744Z,101285.00
2023-09-27T06:16:52.021Z,101284.40
2023-09-27T06:18:24.790Z,101291.80
2023-09-27T06:21:44.362Z,101311.60
2023-09-27T06:23:16.245Z,101316.00
2023-09-27T06:24:48.292Z,101323.40
2023-09-27T06:26:20.126Z,101330.20
2023-09-27T06:27:52.933Z,101329.40
2023-09-27T06:29:24.937Z,101321.80
2023-09-27T06:30:58.351Z,101320.00
2023-09-27T06:32:31.346Z,101313.20
2023-09-27T06:34:03.485Z,101300.40
2023-09-27T06:35:35.351Z,101297.20
2023-09-27T06:37:08.535Z,101290.20
2023-09-27T06:38:41.745Z,101291.40
2023-09-27T06:40:17.719Z,101295.80
2023-09-27T06:41:49.660Z,101305.40
2023-09-27T06:43:21.413Z,101312.20
2023-09-27T06:44:53.183Z,101305.60
2023-09-27T06:46:27.738Z,101305.60
2023-09-27T06:48:01.953Z,101302.60
2023-09-27T06:49:33.884Z,101301.60
2023-09-27T06:51:06.961Z,101304.40
2023-09-27T06:52:41.215Z,101309.60
2023-09-27T06:54:12.992Z,101310.40
2023-09-27T06:55:46.012Z,101315.00
2023-09-27T06:57:17.989Z,101318.80
2023-09-27T06:58:53.437Z,101320.60
2023-09-27T07:00:26.030Z,101317.00
2023-09-27T07:01:57.918Z,101318.80
2023-09-27T07:03:34.873Z,101312.80
2023-09-27T07:05:07.238Z,101309.00
2023-09-27T07:06:39.187Z,101305.60
2023-09-27T07:08:11.820Z,101300.60
2023-09-27T07:09:43.983Z,101294.60
2023-09-27T07:11:15.913Z,101297.80
2023-09-27T07:12:47.983Z,101295.80
2023-09-27T07:14:21.264Z,101294.40
2023-09-27T07:15:53.385Z,101292.80
2023-09-27T07:17:26.381Z,101292.20
2023-09-27T07:19:02.114Z,101292.00
2023-09-27T07:20:36.167Z,101294.40
2023-09-27T07:22:11.503Z,101295.80
2023-09-27T07:23:43.352Z,101301.40
2023-09-27T07:25:19.874Z,101300.40
2023-09-27T07:26:53.810Z,101302.60
2023-09-27T07:28:26.055Z,101302.40
2023-09-27T07:29:57.775Z,101303.20
2023-09-27T07:31:30.961Z,101298.60
2023-09-27T07:33:13.410Z,101297.00
2023-09-27T07:34:45.615Z,101293.40
2023-09-27T07:36:18.756Z,101294.00
2023-09-27T07:37:50.883Z,101295.40
2023-09-27T07:39:23.893Z,101305.80
2023-09-27T07:40:55.755Z,101306.40
2023-09-27T07:42:27.609Z,101314.80
2023-09-27T07:44:00.220Z,101316.60
2023-09-27T07:45:35.629Z,101318.40
2023-09-27T07:47:08.098Z,101308.60
2023-09-27T07:48:42.666Z,101307.80
2023-09-27T07:50:14.764Z,101308.20
2023-09-27T07:51:46.821Z,101313.40
2023-09-27T07:53:21.235Z,101309.20
2023-09-27T07:54:53.080Z,101311.20
2023-09-27T07:56:27.611Z,101314.20
2023-09-27T07:58:01.134Z,101310.60
2023-09-27T07:59:33.035Z,101304.40
2023-09-27T08:01:06.056Z,101300.60
2023-09-27T08:02:39.380Z,101297.60
2023-09-27T08:04:14.055Z,101303.00
2023-09-27T08:05:46.348Z,101303.20
2023-09-27T08:07:20.005Z,101300.20
2023-09-27T08:08:53.401Z,101300.80
2023-09-27T08:10:25.944Z,101298.40
2023-09-27T08:11:57.929Z,101302.00
2023-09-27T08:13:31.353Z,101294.80
2023-09-27T08:15:05.096Z,101290.00
2023-09-27T08:16:37.212Z,101284.00
2023-09-27T08:18:09.338Z,101277.60
2023-09-27T08:19:41.185Z,101275.20
2023-09-27T08:21:13.101Z,101276.40
2023-09-27T08:22:44.931Z,101274.60
2023-09-27T08:24:18.397Z,101276.80
2023-09-27T08:25:50.260Z,101276.60
2023-09-27T08:27:22.074Z,101277.60
2023-09-27T08:28:54.219Z,101280.20
2023-09-27T08:30:26.307Z,101282.20
2023-09-27T08:31:58.141Z,101284.20
2023-09-27T08:33:30.019Z,101286.40
2023-09-27T08:35:06.427Z,101293.00
2023-09-27T08:36:38.488Z,101289.60
2023-09-27T08:38:10.377Z,101289.20
2023-09-27T08:39:43.323Z,101284.80
2023-09-27T08:41:16.875Z,101282.20
2023-09-27T08:42:52.403Z,101278.80
2023-09-27T08:44:25.449Z,101275.40
2023-09-27T08:45:57.502Z,101281.00
2023-09-27T08:47:31.918Z,101278.60
2023-09-27T08:49:04.945Z,101277.20
2023-09-27T08:50:38.345Z,101281.20
2023-09-27T08:52:10.496Z,101274.80
2023-09-27T08:53:43.510Z,101272.00
2023-09-27T08:55:18.845Z,101271.40
2023-09-27T08:56:52.667Z,101268.40
2023-09-27T08:58:26.744Z,101266.40
2023-09-27T08:59:58.696Z,101269.40
2023-09-27T09:01:34.366Z,101268.00
2023-09-27T09:03:06.576Z,101266.20
2023-09-27T09:04:39.044Z,101265.40
2023-09-27T09:06:14.191Z,101267.00
2023-09-27T09:07:46.741Z,101269.40
2023-09-27T09:09:18.682Z,101260.80
2023-09-27T09:10:50.855Z,101258.20
2023-09-27T09:12:22.588Z,101249.00
2023-09-27T09:14:05.718Z,101252.20
2023-09-27T09:15:42.885Z,101249.40
2023-09-27T09:17:19.459Z,101252.00
2023-09-27T09:18:56.554Z,101249.00
2023-09-27T09:20:34.297Z,101254.60
2023-09-27T09:22:12.575Z,101252.80
2023-09-27T09:23:48.898Z,101252.80
2023-09-27T09:25:23.964Z,101253.20
2023-09-27T09:27:09.888Z,101253.20
2023-09-27T09:29:01.804Z,101255.60
2023-09-27T09:30:42.026Z,101250.20
2023-09-27T09:32:17.129Z,101244.60
2023-09-27T09:34:13.234Z,101247.60
2023-09-27T09:35:46.107Z,101244.60
2023-09-27T09:37:22.740Z,101244.40
2023-09-27T09:38:54.734Z,101245.40
2023-09-27T09:40:26.911Z,101241.60
2023-09-27T09:42:01.568Z,101243.20
2023-09-27T09:43:37.998Z,101239.20
2023-09-27T09:45:13.608Z,101236.20
2023-09-27T09:46:46.046Z,101239.60
2023-09-27T09:48:18.699Z,101240.40
2023-09-27T09:49:51.919Z,101241.40
2023-09-27T09:51:25.375Z,101245.40
2023-09-27T09:52:59.768Z,101251.00
2023-09-27T09:54:54.881Z,101253.00
2023-09-27T09:56:50.302Z,101249.20
2023-09-27T09:59:05.869Z,101247.40
2023-09-27T10:00:47.546Z,101244.40
2023-09-27T10:02:28.342Z,101241.00
2023-09-27T10:04:05.705Z,101239.80
2023-09-27T10:05:40.301Z,101242.60
2023-09-27T10:07:15.963Z,101234.00
2023-09-27T10:08:49.666Z,101233.60
2023-09-27T10:10:23.370Z,101230.20
2023-09-27T10:11:57.349Z,101228.20
2023-09-27T10:13:29.772Z,101231.40
2023-09-27T10:15:05.366Z,101227.00
2023-09-27T10:16:39.270Z,101227.20
2023-09-27T10:18:23.315Z,101226.40
2023-09-27T10:20:15.605Z,101223.60
2023-09-27T10:22:09.321Z,101223.60
2023-09-27T10:23:47.352Z,101226.80
2023-09-27T10:25:25.358Z,101228.20
2023-09-27T10:26:57.241Z,101227.80
2023-09-27T10:28:29.413Z,101227.40
2023-09-27T10:30:02.179Z,101230.60
2023-09-27T10:31:58.745Z,101227.20
2023-09-27T10:33:31.539Z,101224.40
2023-09-27T10:35:19.628Z,101232.40
2023-09-27T10:37:04.183Z,101229.20
2023-09-27T10:38:46.269Z,101227.80
2023-09-27T10:40:23.089Z,101230.80
2023-09-27T10:41:55.387Z,101224.60
2023-09-27T10:43:36.614Z,101222.60
2023-09-27T10:45:10.738Z,101219.60
2023-09-27T10:46:46.940Z,101220.60
2023-09-27T10:48:21.377Z,101221.80
2023-09-27T10:49:53.112Z,101223.40
2023-09-27T10:51:27.643Z,101223.00
2023-09-27T10:53:00.551Z,101224.20
2023-09-27T10:54:33.359Z,101225.80
2023-09-27T10:56:05.770Z,101219.20
2023-09-27T10:57:40.591Z,101213.20
2023-09-27T10:59:14.853Z,101211.80
2023-09-27T11:01:01.751Z,101208.00
2023-09-27T11:02:33.903Z,101205.80
2023-09-27T11:04:06.593Z,101211.20
2023-09-27T11:05:38.444Z,101211.00
2023-09-27T11:07:10.358Z,101202.60
2023-09-27T11:08:42.367Z,101197.80
2023-09-27T11:10:34.440Z,101195.00
2023-09-27T11:12:06.478Z,101192.00
2023-09-27T11:13:47.206Z,101192.00
2023-09-27T11:15:24.562Z,101190.00
2023-09-27T11:16:56.465Z,101186.40
2023-09-27T11:18:28.680Z,101191.00
2023-09-27T11:20:13.113Z,101189.60
2023-09-27T11:21:45.959Z,101191.80
2023-09-27T11:23:21.047Z,101187.80
2023-09-27T11:24:52.985Z,101182.00
2023-09-27T11:26:30.974Z,101179.20
2023-09-27T11:28:03.636Z,101177.80
2023-09-27T11:29:36.526Z,101169.80
2023-09-27T11:31:08.593Z,101167.80
2023-09-27T11:32:53.814Z,101163.40
2023-09-27T11:34:26.194Z,101163.40
2023-09-27T11:35:57.967Z,101162.80
2023-09-27T11:37:29.841Z,101161.40
2023-09-27T11:39:01.647Z,101152.40
2023-09-27T11:40:35.980Z,101157.40
2023-09-27T11:42:07.964Z,101153.00
2023-09-27T11:43:39.889Z,101148.00
2023-09-27T11:45:15.196Z,101143.80
2023-09-27T11:46:50.846Z,101149.40
2023-09-27T11:48:34.748Z,101150.20
2023-09-27T11:50:07.531Z,101148.00
2023-09-27T11:51:39.775Z,101149.00
2023-09-27T11:53:12.297Z,101153.00
2023-09-27T11:54:46.688Z,101152.00
2023-09-27T11:56:18.739Z,101151.80
2023-09-27T11:57:50.503Z,101149.00
2023-09-27T11:59:22.392Z,101148.20
2023-09-27T12:00:54.226Z,101141.80
2023-09-27T12:02:29.669Z,101138.60
2023-09-27T12:04:06.970Z,101138.80
2023-09-27T12:05:39.511Z,101132.00
2023-09-27T12:07:12.052Z,101130.40
2023-09-27T12:08:44.262Z,101125.20
2023-09-27T12:10:17.450Z,101122.40
2023-09-27T12:11:49.721Z,101122.20
2023-09-27T12:13:21.512Z,101119.80
2023-09-27T12:14:54.017Z,101115.40
2023-09-27T12:16:27.398Z,101112.40
2023-09-27T12:17:59.439Z,101112.20
2023-09-27T12:19:35.574Z,101108.20
2023-09-27T12:21:07.470Z,101101.80
2023-09-27T12:22:39.302Z,101100.20
2023-09-27T12:24:11.112Z,101099.40
2023-09-27T12:25:43.240Z,101103.00
2023-09-27T12:27:15.868Z,101092.60
2023-09-27T12:28:47.589Z,101088.00
2023-09-27T12:30:19.503Z,101089.00
2023-09-27T12:31:51.262Z,101084.40
2023-09-27T12:33:23.191Z,101087.00
2023-09-27T12:34:55.163Z,101086.00
2023-09-27T12:36:27.176Z,101085.80
2023-09-27T12:38:00.770Z,101085.80
2023-09-27T12:39:32.568Z,101083.20
2023-09-27T12:41:09.178Z,101084.40
2023-09-27T12:42:41.209Z,101079.40
2023-09-27T12:44:21.439Z,101080.60
2023-09-27T12:45:56.482Z,101082.60
2023-09-27T12:47:28.319Z,101082.40
2023-09-27T12:49:00.538Z,101080.80
2023-09-27T12:50:32.572Z,101077.00
2023-09-27T12:52:04.576Z,101073.80
2023-09-27T12:53:36.503Z,101074.60
2023-09-27T12:55:10.450Z,101067.60
2023-09-27T12:56:42.228Z,101064.80
2023-09-27T12:58:15.261Z,101059.00
2023-09-27T12:59:48.421Z,101056.80
2023-09-27T13:01:20.699Z,101059.20
2023-09-27T13:02:52.708Z,101058.40
2023-09-27T13:04:24.604Z,101057.20
2023-09-27T13:05:56.592Z,101054.60
2023-09-27T13:07:28.469Z,101052.80
2023-09-27T13:09:00.305Z,101049.60
2023-09-27T13:10:36.233Z,101045.40
2023-09-27T13:12:09.732Z,101040.40
2023-09-27T13:13:41.508Z,101038.00
2023-09-27T13:15:13.435Z,101037.80
2023-09-27T13:16:46.275Z,101032.20
2023-09-27T13:18:18.114Z,101034.40
2023-09-27T13:19:53.035Z,101031.60
2023-09-27T13:21:25.952Z,101029.40
2023-09-27T13:22:57.700Z,101031.00
2023-09-27T13:24:29.695Z,101029.00
2023-09-27T13:26:01.480Z,101025.40
2023-09-27T13:27:33.231Z,101026.00
2023-09-27T13:29:05.461Z,101027.20
2023-09-27T13:30:37.916Z,101025.20
2023-09-27T13:32:10.389Z,101023.40
2023-09-27T13:33:46.407Z,101019.00
2023-09-27T13:35:20.712Z,101019.80
2023-09-27T13:36:53.210Z,101017.40
2023-09-27T13:38:26.965Z,101022.20
2023-09-27T13:40:00.519Z,101016.60
2023-09-27T13:41:45.225Z,101012.40
2023-09-27T13:43:17.426Z,101009.80
2023-09-27T13:44:49.466Z,101010.80
2023-09-27T13:46:21.703Z,101013.40
2023-09-27T13:47:54.013Z,101010.20
2023-09-27T13:49:25.894Z,101003.80
2023-09-27T13:50:57.892Z,101008.40
2023-09-27T13:52:29.774Z,101008.80
2023-09-27T13:54:03.510Z,101006.60
2023-09-27T13:55:35.316Z,101010.20
2023-09-27T13:57:08.433Z,101009.00
2023-09-27T13:58:40.628Z,101009.40
2023-09-27T14:00:14.756Z,101010.00
2023-09-27T14:01:46.953Z,101009.40
2023-09-27T14:03:18.865Z,101006.80
2023-09-27T14:04:50.816Z,101002.00
2023-09-27T14:06:22.639Z,101002.40
2023-09-27T14:07:54.596Z,101003.00
2023-09-27T14:09:26.451Z,101003.20
2023-09-27T14:10:58.332Z,101000.60
2023-09-27T14:12:30.912Z,101000.60
2023-09-27T14:14:04.168Z,101004.00
2023-09-27T14:15:37.182Z,101000.60
2023-09-27T14:17:09.077Z,100995.20
2023-09-27T14:18:44.106Z,100990.40
2023-09-27T14:20:18.202Z,100992.00
2023-09-27T14:21:52.864Z,100994.00
2023-09-27T14:23:24.685Z,100993.00
2023-09-27T14:25:02.596Z,100989.40
2023-09-27T14:26:34.920Z,100989.40
2023-09-27T14:28:06.889Z,100986.00
2023-09-27T14:29:39.473Z,100985.80
2023-09-27T14:31:11.658Z,100986.40
2023-09-27T14:32:44.323Z,100982.80
2023-09-27T14:34:16.316Z,100984.00
2023-09-27T14:37:23.035Z,100982.20
2023-09-27T14:39:00.425Z,100978.40
2023-09-27T14:40:33.307Z,100978.20
2023-09-27T14:42:05.419Z,100978.00
2023-09-27T14:43:40.310Z,100978.40
2023-09-27T14:45:28.430Z,100979.00
2023-09-27T14:47:04.294Z,100979.20
2023-09-27T14:48:36.197Z,100980.60
2023-09-27T14:50:08.797Z,100981.20
2023-09-27T14:51:40.773Z,100971.40
2023-09-27T14:53:12.782Z,100971.40
2023-09-27T14:54:44.634Z,100966.40
2023-09-27T14:56:18.415Z,100966.40
2023-09-27T14:57:50.245Z,100964.00
2023-09-27T14:59:22.015Z,100964.80
2023-09-27T15:00:53.903Z,100963.80
2023-09-27T15:02:27.532Z,100964.60
2023-09-27T15:03:59.514Z,100967.60
2023-09-27T15:05:31.641Z,100965.00
2023-09-27T15:07:04.063Z,100964.60
2023-09-27T15:08:35.960Z,100959.80
2023-09-27T15:10:09.030Z,100956.00
2023-09-27T15:11:40.796Z,100958.20
2023-09-27T15:13:15.896Z,100959.40
2023-09-27T15:14:47.715Z,100959.80
2023-09-27T15:16:20.447Z,100960.60
2023-09-27T15:17:52.499Z,100967.60
2023-09-27T15:19:24.366Z,100968.60
2023-09-27T15:20:57.333Z,100968.80
2023-09-27T15:22:29.107Z,100972.20
2023-09-27T15:24:01.210Z,100973.00
2023-09-27T15:25:33.035Z,100971.20
2023-09-27T15:27:04.906Z,100976.80
2023-09-27T15:28:36.778Z,100969.20
2023-09-27T15:30:11.784Z,100964.60
2023-09-27T15:31:44.905Z,100973.40
2023-09-27T15:33:17.092Z,100969.00
2023-09-27T15:34:49.063Z,100964.00
2023-09-27T15:36:21.039Z,100966.20
2023-09-27T15:37:54.961Z,100962.80
2023-09-27T15:39:26.814Z,100964.40
2023-09-27T15:40:58.731Z,100965.60
2023-09-27T15:42:30.750Z,100967.40
2023-09-27T15:44:02.532Z,100968.40
2023-09-27T15:45:34.949Z,100967.60
2023-09-27T15:47:08.347Z,100966.00
2023-09-27T15:48:40.492Z,100970.20
2023-09-27T15:50:13.170Z,100967.00
2023-09-27T15:51:45.663Z,100963.80
2023-09-27T15:53:17.693Z,100966.40
2023-09-27T15:54:49.454Z,100970.00
2023-09-27T15:56:21.603Z,100964.40
2023-09-27T15:57:54.479Z,100960.80
2023-09-27T15:59:26.610Z,100964.20
2023-09-27T16:01:05.625Z,100960.40
2023-09-27T16:02:37.495Z,100960.00
2023-09-27T16:04:11.328Z,100951.60
2023-09-27T16:05:50.493Z,100948.80
2023-09-27T16:07:22.262Z,100948.60
2023-09-27T16:08:54.445Z,100949.20
2023-09-27T16:10:27.134Z,100948.40
2023-09-27T16:11:58.982Z,100949.60
2023-09-27T16:13:31.495Z,100951.40
2023-09-27T16:15:03.484Z,100955.20
2023-09-27T16:16:36.551Z,100953.80
2023-09-27T16:18:08.379Z,100953.00
2023-09-27T16:19:40.237Z,100953.40
2023-09-27T16:21:12.280Z,100949.60
2023-09-27T16:22:44.154Z,100945.60
2023-09-27T16:24:16.899Z,100942.60
2023-09-27T16:25:49.697Z,100945.60
2023-09-27T16:27:21.748Z,100945.80
2023-09-27T16:28:53.580Z,100949.20
2023-09-27T16:30:26.152Z,100945.60
2023-09-27T16:31:58.706Z,100949.40
2023-09-27T16:33:30.833Z,100949.00
2023-09-27T16:35:02.684Z,100946.20
2023-09-27T16:36:35.706Z,100945.80
2023-09-27T16:38:07.603Z,100946.20
2023-09-27T16:39:39.382Z,100940.80
2023-09-27T16:41:11.155Z,100945.80
2023-09-27T16:42:42.917Z,100943.00
2023-09-27T16:44:14.752Z,100943.20
2023-09-27T16:45:46.655Z,100941.80
2023-09-27T16:47:18.421Z,100939.60
2023-09-27T16:48:50.272Z,100939.60
2023-09-27T16:50:22.879Z,100939.20
2023-09-27T16:51:54.668Z,100941.20
2023-09-27T16:53:26.559Z,100940.60
2023-09-27T16:54:59.792Z,100944.80
2023-09-27T16:56:32.624Z,100940.00
2023-09-27T16:58:06.204Z,100947.20
2023-09-27T16:59:38.096Z,100950.40
2023-09-27T17:01:19.071Z,100943.80
2023-09-27T17:02:50.969Z,100939.40
2023-09-27T17:04:22.943Z,100938.80
2023-09-27T17:05:54.795Z,100939.00
2023-09-27T17:07:34.250Z,100933.60
2023-09-27T17:09:06.352Z,100936.20
2023-09-27T17:10:38.297Z,100933.60
2023-09-27T17:12:10.368Z,100933.40
2023-09-27T17:13:42.512Z,100931.60
2023-09-27T17:15:14.521Z,100929.40
2023-09-27T17:16:47.630Z,100929.00
2023-09-27T17:18:19.527Z,100932.20
2023-09-27T17:19:51.533Z,100930.80
2023-09-27T17:21:28.577Z,100923.80
2023-09-27T17:23:00.493Z,100924.80
2023-09-27T17:24:32.306Z,100928.20
2023-09-27T17:26:07.374Z,100921.60
2023-09-27T17:27:39.244Z,100920.60
2023-09-27T17:29:10.957Z,100921.80
2023-09-27T17:30:42.715Z,100917.40
2023-09-27T17:32:14.513Z,100922.00
2023-09-27T17:33:49.285Z,100916.60
2023-09-27T17:35:21.892Z,100917.00
2023-09-27T17:36:53.850Z,100916.00
2023-09-27T17:38:26.544Z,100916.20
2023-09-27T17:39:58.314Z,100912.00
2023-09-27T17:41:30.234Z,100913.40
2023-09-27T17:43:02.055Z,100906.80
2023-09-27T17:44:34.226Z,100904.60
2023-09-27T17:46:25.630Z,100904.20
2023-09-27T17:47:57.723Z,100902.80
2023-09-27T17:49:30.160Z,100897.80